Back to top

Boise, ID weather

Boise Air Terminal/Gowen Field, Boise, ID: 7/02/2020 10:53
Visibility10 statute milesclear sky
View 7-Day Forecast
Area Summary
Sky/CloudsSky Clear
Weather [last 24 hours]None
Pressure30.01 in.Hg (1016 hPa)
Dew Point43 °F (6.1 °C)
Relative Humidity43.2 %
Temperature66 °F (18.9 °C)red thermometer
Reading TimeMinimum to Maximum Temperature
6-hr ending 7/2@05:5348.9 °F to 60.1 °F (9.4 °C to 15.6 °C)
6-hr ending 7/1@23:5359 °F to 75.9 °F (15 °C to 24.4 °C)
6-hr ending 7/1@17:5363 °F to 75.9 °F (17.2 °C to 24.4 °C)
6-hr ending 7/1@11:5352 °F to 64 °F (11.1 °C to 17.8 °C)
24-hr ending 7/2@00:5352 °F to 75.9 °F (11.1 °C to 24.4 °C)
Wind5.75 MPH (5 KT) green arrow with no specific direction
Wind FromVariable (VRB Degrees)
Twilight Begins05:31Sunshine Yesterday
Sunrise06:07N/A
Sunset21:31
Twilight Ends22:07
METARKBOI 021653Z VRB05KT 10SM CLR 19/06 A3001 RMK AO2 SLP144 T01890061
Tags: